Time;durP1;ratioP1;P1;durP2;ratioP2;P2;SDS_P1;SDS_P2;PMS_P1;PMS_P2;Temp;Humidity;BMP_temperature;BMP_pressure;BME280_temperature;BME280_humidity;BME280_pressure;Samples;Min_cycle;Max_cycle;Signal;HPM_P1;HPM_P2
2021/08/15 00:03:07;;;;;;;17.57;9.87;;;;;;;23.15;53.89;98075.34;8386520;28;20204;-90
2021/08/15 00:07:11;;;;;;;15.83;9.83;;;;;;;23.17;53.91;98075.16;8386905;28;20421;-90
2021/08/15 00:11:14;;;;;;;14.57;9.00;;;;;;;23.19;53.91;98070.59;8387322;28;20507;-90
2021/08/15 00:15:17;;;;;;;14.23;9.23;;;;;;;23.07;53.98;98059.38;8387386;28;20206;-90
2021/08/15 00:19:21;;;;;;;15.63;9.97;;;;;;;23.05;54.24;98063.13;8387251;28;20214;-90
2021/08/15 00:23:25;;;;;;;15.33;9.47;;;;;;;23.06;54.13;98063.00;8387140;28;20213;-89
2021/08/15 00:27:27;;;;;;;14.37;9.70;;;;;;;23.06;54.04;98065.63;8387504;28;20226;-91
2021/08/15 00:31:30;;;;;;;12.20;10.03;;;;;;;23.04;54.17;98057.03;8387716;28;20199;-91
2021/08/15 00:35:34;;;;;;;12.77;9.90;;;;;;;22.99;54.28;98048.66;8387112;28;20227;-91
2021/08/15 00:39:39;;;;;;;13.43;9.70;;;;;;;22.98;53.84;98039.91;8387494;28;20206;-92
2021/08/15 00:43:42;;;;;;;15.70;10.43;;;;;;;22.95;54.02;98049.94;8387336;28;20199;-91
2021/08/15 00:47:45;;;;;;;17.83;10.53;;;;;;;22.88;54.17;98046.19;8387125;28;20235;-91
2021/08/15 00:51:48;;;;;;;12.67;10.50;;;;;;;22.84;53.97;98046.47;8387172;28;20271;-91
2021/08/15 00:55:52;;;;;;;12.87;10.47;;;;;;;22.79;54.00;98038.19;8386741;28;20211;-90
2021/08/15 00:59:55;;;;;;;15.73;10.10;;;;;;;22.74;53.77;98042.22;8386953;28;20204;-90
2021/08/15 01:04:02;;;;;;;16.43;10.17;;;;;;;22.75;54.14;98038.59;8386443;28;20232;-90
2021/08/15 01:08:06;;;;;;;14.30;10.47;;;;;;;22.67;54.16;98041.13;8386676;28;20223;-91
2021/08/15 01:12:10;;;;;;;14.87;11.03;;;;;;;22.63;54.44;98030.84;8387137;28;20211;-90
2021/08/15 01:16:13;;;;;;;18.47;11.17;;;;;;;22.58;54.41;98037.50;8403174;28;20199;-90
2021/08/15 01:20:16;;;;;;;17.63;11.27;;;;;;;22.58;53.83;98029.59;8394330;28;20207;-90
2021/08/15 01:24:18;;;;;;;17.50;10.50;;;;;;;22.55;53.94;98030.72;8385765;28;20200;-90
2021/08/15 01:28:23;;;;;;;15.10;10.53;;;;;;;22.53;53.89;98037.97;8385627;28;20238;-90
2021/08/15 01:32:26;;;;;;;12.87;10.40;;;;;;;22.40;54.34;98032.16;8385264;28;20211;-88
2021/08/15 01:36:28;;;;;;;15.53;10.83;;;;;;;22.33;54.04;98028.41;8384672;28;20526;-88
2021/08/15 01:40:31;;;;;;;16.00;10.53;;;;;;;22.27;54.53;98024.50;8384583;28;20203;-88
2021/08/15 01:44:35;;;;;;;15.57;10.23;;;;;;;22.38;54.10;98032.28;8384872;28;20386;-88
2021/08/15 01:48:42;;;;;;;13.20;10.50;;;;;;;22.33;54.05;98023.97;8385331;28;20314;-88
2021/08/15 01:52:45;;;;;;;11.90;9.83;;;;;;;22.24;54.14;98022.97;8384828;28;20210;-89
2021/08/15 01:56:48;;;;;;;12.10;9.73;;;;;;;22.18;54.43;98020.91;8384547;28;20206;-89
2021/08/15 02:00:52;;;;;;;14.73;10.10;;;;;;;22.19;53.98;98019.09;8383660;28;20206;-89
2021/08/15 02:04:55;;;;;;;13.43;9.40;;;;;;;22.22;53.77;98026.72;8383476;28;20353;-90
2021/08/15 02:08:58;;;;;;;13.40;9.77;;;;;;;22.17;54.10;98021.03;8383490;28;20233;-89
2021/08/15 02:13:03;;;;;;;12.77;9.50;;;;;;;22.00;53.88;98019.94;8383542;28;20214;-89
2021/08/15 02:17:07;;;;;;;11.77;9.73;;;;;;;22.02;53.92;98018.81;8383423;28;20386;-91
2021/08/15 02:21:10;;;;;;;12.60;10.40;;;;;;;22.00;54.36;98015.47;8383690;28;20207;-92
2021/08/15 02:25:15;;;;;;;16.93;10.23;;;;;;;22.00;53.81;98018.13;8383217;28;20497;-91
2021/08/15 02:29:17;;;;;;;15.83;11.13;;;;;;;21.79;54.97;98018.25;8383124;28;20234;-91
2021/08/15 02:33:21;;;;;;;14.47;10.73;;;;;;;21.83;54.33;98009.09;8389240;28;20210;-92
2021/08/15 02:37:24;;;;;;;15.63;10.27;;;;;;;21.89;54.81;98012.16;8389450;28;20250;-92
2021/08/15 02:41:27;;;;;;;11.00;9.67;;;;;;;21.84;54.61;98004.66;8389860;28;20226;-89
2021/08/15 02:45:30;;;;;;;13.13;10.53;;;;;;;21.81;54.76;98003.13;8389537;28;20205;-89
2021/08/15 02:49:34;;;;;;;14.23;10.73;;;;;;;21.77;54.98;98007.00;8389165;28;20240;-91
2021/08/15 02:53:37;;;;;;;13.13;11.17;;;;;;;21.72;54.60;98000.50;8389439;28;20220;-88
2021/08/15 02:57:40;;;;;;;13.03;10.30;;;;;;;21.74;55.11;98003.81;8389021;28;20219;-89
2021/08/15 03:01:42;;;;;;;13.07;10.60;;;;;;;21.63;55.33;98002.97;8389097;28;20210;-93
2021/08/15 03:05:47;;;;;;;17.00;11.23;;;;;;;21.62;55.23;98000.47;8389060;28;20226;-93
2021/08/15 03:09:50;;;;;;;12.47;11.17;;;;;;;21.63;55.20;97997.72;8388915;28;20231;-93
2021/08/15 03:13:53;;;;;;;13.87;11.10;;;;;;;21.61;54.80;97997.03;8388864;28;20211;-93
2021/08/15 03:17:55;;;;;;;13.67;11.03;;;;;;;21.56;55.11;97986.06;8388739;28;20406;-92
2021/08/15 03:22:00;;;;;;;18.63;10.63;;;;;;;21.54;54.28;97992.44;8388790;28;20215;-92
2021/08/15 03:26:02;;;;;;;18.37;9.90;;;;;;;21.45;54.95;97986.16;8388844;28;20205;-93
2021/08/15 03:30:06;;;;;;;15.80;9.97;;;;;;;21.37;54.60;97978.09;8388221;28;20393;-92
2021/08/15 03:34:09;;;;;;;14.30;10.20;;;;;;;21.29;55.11;97987.50;8388128;28;20207;-90
2021/08/15 03:38:13;;;;;;;15.83;9.70;;;;;;;21.30;54.93;97985.69;8388089;28;20538;-90
2021/08/15 03:42:16;;;;;;;13.07;9.90;;;;;;;21.37;54.40;97981.56;8387305;28;20222;-89
2021/08/15 03:46:18;;;;;;;12.17;9.30;;;;;;;21.27;54.83;97986.81;8387419;28;20200;-87
2021/08/15 03:50:21;;;;;;;11.70;9.50;;;;;;;21.24;54.75;97983.59;8387426;28;20227;-87
2021/08/15 03:54:26;;;;;;;13.30;9.73;;;;;;;21.24;54.37;97976.53;8388984;28;20204;-87
2021/08/15 03:58:29;;;;;;;16.00;10.03;;;;;;;21.20;54.61;97977.78;8406789;28;20425;-87
2021/08/15 04:02:32;;;;;;;11.27;9.27;;;;;;;21.20;54.50;97975.13;8387929;28;20421;-87
2021/08/15 04:06:35;;;;;;;13.37;10.10;;;;;;;21.09;54.39;97981.34;8386612;28;20223;-87
2021/08/15 04:10:39;;;;;;;15.40;9.00;;;;;;;21.00;53.89;97989.19;8386360;28;20228;-87
2021/08/15 04:14:43;;;;;;;13.27;8.90;;;;;;;21.02;54.62;97989.94;8386885;28;20210;-91
2021/08/15 04:18:46;;;;;;;13.37;9.97;;;;;;;20.99;54.65;97982.28;8386940;28;20388;-93
2021/08/15 04:22:49;;;;;;;14.73;9.77;;;;;;;20.85;55.13;97976.41;8386843;28;20211;-94
2021/08/15 04:26:53;;;;;;;13.10;10.07;;;;;;;20.80;54.85;97978.59;8386637;28;20204;-94
2021/08/15 04:30:56;;;;;;;10.80;9.77;;;;;;;20.69;55.24;97973.44;8386992;28;20501;-94
2021/08/15 04:34:59;;;;;;;13.60;10.70;;;;;;;20.84;55.13;97968.66;8388698;28;20360;-94
2021/08/15 04:39:01;;;;;;;10.57;9.33;;;;;;;20.87;55.21;97971.84;8386183;28;20237;-94
2021/08/15 04:43:06;;;;;;;14.47;9.93;;;;;;;20.79;55.01;97958.53;8386307;28;20201;-93
2021/08/15 04:47:08;;;;;;;15.93;10.53;;;;;;;20.78;55.38;97959.47;8386107;28;20222;-93
2021/08/15 04:51:11;;;;;;;11.40;9.67;;;;;;;20.82;55.11;97971.41;8385774;28;20228;-93
2021/08/15 04:55:14;;;;;;;14.03;10.00;;;;;;;20.80;54.93;97967.25;8384639;28;20214;-92
2021/08/15 04:59:18;;;;;;;12.20;8.87;;;;;;;20.95;55.25;97965.91;8384907;28;20203;-92
2021/08/15 05:03:21;;;;;;;11.50;8.90;;;;;;;21.01;54.91;97975.09;8385180;28;20203;-93
2021/08/15 05:07:24;;;;;;;16.43;10.37;;;;;;;21.04;55.31;97978.28;8385110;28;20396;-92
2021/08/15 05:11:27;;;;;;;10.07;9.07;;;;;;;21.09;55.08;97975.25;8385109;28;20237;-92
2021/08/15 05:15:31;;;;;;;12.90;9.70;;;;;;;21.11;55.51;97977.75;8384869;28;20205;-92
2021/08/15 05:19:34;;;;;;;11.37;10.20;;;;;;;21.16;54.59;97981.66;8384962;28;20223;-93
2021/08/15 05:23:36;;;;;;;11.37;9.90;;;;;;;21.28;54.93;97988.47;8384795;28;20211;-94
2021/08/15 05:27:39;;;;;;;11.73;9.23;;;;;;;21.33;55.10;97976.69;8384623;28;20495;-92
2021/08/15 05:31:44;;;;;;;12.40;11.10;;;;;;;21.35;55.27;97983.50;8384285;28;20242;-89
2021/08/15 05:35:46;;;;;;;15.00;11.77;;;;;;;21.14;55.78;97980.13;8384140;28;20210;-95
2021/08/15 05:39:50;;;;;;;12.03;10.47;;;;;;;21.36;55.63;97985.16;8384524;28;20200;-92
2021/08/15 05:43:52;;;;;;;14.70;10.73;;;;;;;21.47;55.86;97978.97;8384771;28;20208;-96
2021/08/15 05:47:56;;;;;;;13.37;11.33;;;;;;;21.62;55.57;97995.22;8384622;28;20200;-90
2021/08/15 05:51:59;;;;;;;13.57;10.57;;;;;;;21.75;55.54;97994.94;8383858;28;20230;-91
2021/08/15 05:56:02;;;;;;;14.23;11.70;;;;;;;21.76;56.14;98004.50;8383889;28;20202;-93
2021/08/15 06:00:06;;;;;;;13.03;11.73;;;;;;;21.82;56.03;98002.16;8383266;28;20402;-94
2021/08/15 06:04:11;;;;;;;14.63;11.20;;;;;;;22.08;55.76;97995.50;8383537;28;20232;-90
2021/08/15 06:08:15;;;;;;;14.50;11.17;;;;;;;22.31;55.63;97985.50;8383454;28;20497;-90
2021/08/15 06:12:18;;;;;;;15.00;11.57;;;;;;;22.62;54.86;97984.31;8383531;28;20199;-89
2021/08/15 06:16:21;;;;;;;15.53;12.00;;;;;;;22.83;54.83;97980.66;8383274;28;20210;-90
2021/08/15 06:20:25;;;;;;;12.97;11.67;;;;;;;23.03;53.95;97984.03;8383507;28;20388;-89
2021/08/15 06:24:28;;;;;;;13.77;11.30;;;;;;;23.19;54.32;97986.91;8383444;28;20210;-92
2021/08/15 06:28:31;;;;;;;12.57;11.20;;;;;;;23.26;52.87;97991.59;8383470;28;20209;-94
2021/08/15 06:32:55;;;;;;;12.27;10.63;;;;;;;23.36;52.67;97980.00;8383408;28;20195;-95
2021/08/15 06:37:00;;;;;;;11.80;10.17;;;;;;;23.52;52.48;97968.75;8383313;28;20242;-95
2021/08/15 06:41:03;;;;;;;14.13;10.50;;;;;;;23.63;52.80;97975.63;8383668;28;20389;-94
2021/08/15 06:45:07;;;;;;;12.20;10.67;;;;;;;23.75;51.82;97981.53;8383283;28;20553;-94
2021/08/15 06:49:10;;;;;;;16.60;10.97;;;;;;;24.09;51.60;97975.56;8383209;28;20550;-95
2021/08/15 06:53:14;;;;;;;14.10;10.27;;;;;;;24.30;51.31;97959.34;8386447;28;20200;-95
2021/08/15 06:57:16;;;;;;;13.00;10.40;;;;;;;24.47;49.18;97965.59;8383142;28;20203;-95
2021/08/15 07:01:19;;;;;;;16.10;10.17;;;;;;;24.57;49.13;97964.50;8382842;28;20210;-90
2021/08/15 07:05:22;;;;;;;11.20;9.30;;;;;;;24.73;48.88;97962.94;8382509;28;20562;-90
2021/08/15 07:09:26;;;;;;;14.13;9.93;;;;;;;24.96;48.50;97966.69;8382383;28;20223;-91
2021/08/15 07:13:29;;;;;;;15.10;9.80;;;;;;;25.08;49.08;97963.75;8382587;28;20406;-90
2021/08/15 07:17:35;;;;;;;12.37;10.43;;;;;;;25.33;49.12;97975.28;8383849;28;20216;-90
2021/08/15 07:21:38;;;;;;;12.97;9.83;;;;;;;25.41;48.77;97964.69;8388158;28;20204;-89
2021/08/15 07:25:42;;;;;;;10.67;9.53;;;;;;;25.56;47.46;97965.72;8388564;28;20387;-91
2021/08/15 07:29:45;;;;;;;13.37;8.27;;;;;;;25.75;45.32;97964.59;8388340;28;20230;-90
2021/08/15 07:33:48;;;;;;;11.60;8.23;;;;;;;25.96;46.00;97967.78;8388139;28;20215;-90
2021/08/15 07:37:51;;;;;;;9.03;8.07;;;;;;;26.18;45.70;97974.22;8387017;28;20232;-90
2021/08/15 07:41:55;;;;;;;12.47;8.07;;;;;;;26.45;45.87;97978.38;8387935;28;20207;-90
2021/08/15 07:45:58;;;;;;;14.10;8.30;;;;;;;26.74;45.13;97977.00;8387957;28;20211;-90
2021/08/15 07:50:01;;;;;;;11.33;8.63;;;;;;;26.94;44.37;97970.31;8387608;28;20230;-93
2021/08/15 07:54:03;;;;;;;11.03;8.50;;;;;;;27.09;44.14;97973.88;8387498;28;20218;-92
2021/08/15 07:58:07;;;;;;;10.37;7.57;;;;;;;27.42;42.89;97971.09;8387343;28;20211;-93
2021/08/15 08:02:10;;;;;;;10.93;7.67;;;;;;;27.61;41.38;97971.66;8386997;28;20392;-88
2021/08/15 08:06:13;;;;;;;11.03;7.90;;;;;;;27.87;41.34;97966.78;8386728;28;20223;-88
2021/08/15 08:10:16;;;;;;;9.87;7.17;;;;;;;28.15;40.39;97962.78;8373865;28;20223;-87
2021/08/15 08:14:20;;;;;;;9.37;6.53;;;;;;;28.55;38.56;97968.75;8369394;28;20192;-87
2021/08/15 08:18:23;;;;;;;10.10;6.30;;;;;;;28.77;38.91;97958.97;8369747;28;20209;-88
2021/08/15 08:22:26;;;;;;;12.37;7.27;;;;;;;28.57;38.17;97945.41;8371152;28;20200;-89
2021/08/15 08:26:29;;;;;;;8.57;7.17;;;;;;;28.91;38.36;97954.69;8360974;28;20197;-88
2021/08/15 08:30:33;;;;;;;8.43;6.30;;;;;;;29.13;37.65;97942.25;8379683;28;20229;-91
2021/08/15 08:34:36;;;;;;;14.53;7.03;;;;;;;29.67;37.97;97947.16;8368838;28;20199;-90
2021/08/15 08:38:39;;;;;;;12.83;7.20;;;;;;;29.90;37.83;97932.81;8368673;28;20255;-90
2021/08/15 08:42:45;;;;;;;9.83;6.93;;;;;;;30.12;37.84;97931.78;8368613;28;20219;-89
2021/08/15 08:46:51;;;;;;;12.20;6.97;;;;;;;30.39;37.07;97932.81;8368416;28;20200;-90
2021/08/15 08:50:53;;;;;;;8.63;6.93;;;;;;;30.70;36.79;97928.88;8370049;28;20222;-89
2021/08/15 08:54:57;;;;;;;9.77;7.10;;;;;;;30.24;36.84;97926.72;8388210;28;20188;-92
2021/08/15 08:58:59;;;;;;;15.73;6.80;;;;;;;30.55;35.75;97920.97;8387843;28;20196;-93
2021/08/15 09:03:04;;;;;;;6.90;6.20;;;;;;;30.89;36.06;97921.16;8393264;28;20184;-93
2021/08/15 09:07:12;;;;;;;9.03;5.87;;;;;;;31.31;34.67;97920.09;8367940;28;20225;-91
2021/08/15 09:11:16;;;;;;;8.07;5.63;;;;;;;31.55;34.46;97921.41;8371707;28;20574;-95
2021/08/15 09:15:21;;;;;;;7.67;5.50;;;;;;;31.78;34.41;97920.19;8373157;28;20201;-95
2021/08/15 09:19:27;;;;;;;9.00;5.43;;;;;;;31.85;34.44;97907.63;8372077;28;20207;-95
2021/08/15 09:23:32;;;;;;;10.53;5.57;;;;;;;31.70;33.08;97910.53;8370008;28;20198;-90
2021/08/15 09:27:36;;;;;;;6.50;5.80;;;;;;;32.18;34.20;97904.16;8368290;28;20210;-92
2021/08/15 09:31:39;;;;;;;12.67;5.90;;;;;;;32.12;32.31;97902.28;8367193;28;20221;-95
2021/08/15 09:35:43;;;;;;;8.63;5.67;;;;;;;32.49;33.17;97900.78;8362995;28;20383;-91
2021/08/15 09:39:46;;;;;;;8.83;5.37;;;;;;;33.12;31.56;97888.63;8366763;28;20198;-89
2021/08/15 09:43:49;;;;;;;7.73;5.00;;;;;;;33.47;31.22;97882.84;8380202;28;20195;-90
2021/08/15 09:47:52;;;;;;;9.00;5.43;;;;;;;33.47;30.83;97893.56;8376814;28;20198;-90
2021/08/15 09:51:57;;;;;;;7.50;5.63;;;;;;;33.60;31.51;97889.97;8382824;28;20218;-91
2021/08/15 09:56:00;;;;;;;10.50;5.97;;;;;;;33.42;31.90;97883.50;8374310;28;20196;-92
2021/08/15 10:00:04;;;;;;;18.60;6.10;;;;;;;33.53;30.74;97873.94;8397739;28;20205;-92
2021/08/15 10:04:07;;;;;;;11.00;5.60;;;;;;;33.30;31.44;97869.13;8371569;28;20294;-91
2021/08/15 10:08:11;;;;;;;8.43;5.33;;;;;;;33.26;30.63;97866.06;8366732;28;20221;-91
2021/08/15 10:12:14;;;;;;;8.73;5.37;;;;;;;32.99;31.16;97864.53;8352206;28;20325;-90
2021/08/15 10:16:18;;;;;;;9.50;5.30;;;;;;;33.08;30.80;97863.25;8360682;28;20206;-87
2021/08/15 10:20:22;;;;;;;5.97;5.37;;;;;;;33.40;31.79;97860.63;8369854;28;20206;-89
2021/08/15 10:24:41;;;;;;;9.20;5.40;;;;;;;33.52;30.68;97861.53;8366013;28;20208;-90
2021/08/15 10:28:44;;;;;;;6.80;5.40;;;;;;;33.88;31.05;97854.66;8365692;28;20215;-90
2021/08/15 10:33:16;;;;;;;9.83;5.50;;;;;;;33.74;30.70;97850.44;8368215;28;20219;-91
2021/08/15 10:37:33;;;;;;;9.13;5.70;;;;;;;33.57;32.19;97845.63;8362952;28;20237;-90
2021/08/15 10:41:55;;;;;;;5.90;5.20;;;;;;;33.90;30.47;97849.91;8366231;28;20204;-92
2021/08/15 10:46:08;;;;;;;6.67;5.03;;;;;;;33.84;30.32;97835.50;8365667;28;20201;-93
2021/08/15 10:50:11;;;;;;;8.53;5.33;;;;;;;34.06;29.99;97835.91;8365331;28;20203;-88
2021/08/15 10:54:59;;;;;;;7.32;5.30;;;;;;;33.78;30.81;97827.50;8370956;28;20490;-90
2021/08/15 10:59:33;;;;;;;6.73;5.60;;;;;;;33.40;30.53;97820.34;8356384;28;20198;-92
2021/08/15 11:03:54;;;;;;;8.60;5.27;;;;;;;33.76;30.20;97814.28;8377244;28;20233;-92
2021/08/15 11:07:57;;;;;;;7.03;5.00;;;;;;;34.05;29.85;97806.56;8381684;28;20207;-93
2021/08/15 11:12:08;;;;;;;11.13;5.30;;;;;;;33.63;30.39;97807.19;8369163;28;20266;-91
2021/08/15 11:16:47;;;;;;;9.50;5.13;;;;;;;33.82;30.50;97804.53;8370347;28;20201;-89
2021/08/15 11:20:52;;;;;;;11.80;5.70;;;;;;;34.07;30.85;97794.56;8359348;28;20207;-85
2021/08/15 11:24:58;;;;;;;11.13;5.57;;;;;;;34.12;31.50;97791.22;8353973;28;20203;-88
2021/08/15 11:29:05;;;;;;;10.00;6.10;;;;;;;33.75;29.92;97783.09;8354145;28;20207;-87
2021/08/15 11:33:11;;;;;;;8.47;5.73;;;;;;;34.02;30.49;97786.34;8358128;28;20226;-88
2021/08/15 11:37:18;;;;;;;9.03;5.50;;;;;;;34.27;30.18;97788.16;8369573;28;20232;-85
2021/08/15 11:41:20;;;;;;;7.07;5.63;;;;;;;33.69;30.29;97778.63;8366913;28;20209;-87
2021/08/15 11:45:29;;;;;;;10.53;6.03;;;;;;;33.83;30.47;97772.09;8354735;28;20203;-86
2021/08/15 11:49:33;;;;;;;10.27;6.10;;;;;;;33.92;31.05;97779.84;8367030;28;20516;-85
2021/08/15 11:53:38;;;;;;;8.60;7.70;;;;;;;34.45;31.23;97780.09;8385926;28;20376;-85
2021/08/15 11:57:46;;;;;;;10.80;6.60;;;;;;;34.53;31.13;97765.50;8385877;28;20209;-85
2021/08/15 12:01:51;;;;;;;9.30;7.83;;;;;;;34.57;30.12;97760.50;8386423;28;20207;-85
2021/08/15 12:05:57;;;;;;;9.43;6.15;;;;;;;34.70;29.90;97760.34;8385557;28;20426;-85
2021/08/15 12:10:25;;;;;;;9.40;6.70;;;;;;;34.79;31.17;97750.91;8385745;28;20397;-85
2021/08/15 12:14:40;;;;;;;10.47;8.90;;;;;;;34.77;29.55;97744.94;8374866;28;20497;-85
2021/08/15 12:18:52;;;;;;;9.88;6.72;;;;;;;34.53;31.39;97754.75;8352848;28;20455;-85
2021/08/15 12:23:05;;;;;;;13.10;8.55;;;;;;;34.53;31.63;97744.00;8353243;28;20205;-85
2021/08/15 12:27:10;;;;;;;10.88;9.60;;;;;;;34.03;32.05;97739.63;8352344;28;20202;-85
2021/08/15 12:31:21;;;;;;;12.63;8.32;;;;;;;34.60;31.75;97736.69;8351845;28;20232;-85
2021/08/15 12:35:26;;;;;;;18.83;14.57;;;;;;;34.46;31.18;97732.50;8351895;28;20211;-85
2021/08/15 12:39:31;;;;;;;8.90;7.20;;;;;;;34.80;31.61;97712.19;8350824;28;20458;-85
2021/08/15 12:43:34;;;;;;;10.15;5.95;;;;;;;34.32;31.00;97713.06;8351585;28;20447;-85
2021/08/15 12:47:39;;;;;;;12.63;6.20;;;;;;;34.66;32.00;97714.25;8351548;28;20209;-85
2021/08/15 12:51:42;;;;;;;6.72;5.88;;;;;;;33.79;33.23;97711.78;8351326;28;20234;-85
2021/08/15 12:55:47;;;;;;;8.15;5.57;;;;;;;34.06;31.64;97714.19;8351293;28;20207;-85
2021/08/15 12:59:50;;;;;;;8.20;5.88;;;;;;;33.76;32.27;97692.63;8351099;28;20274;-85
2021/08/15 13:03:53;;;;;;;7.20;5.70;;;;;;;32.84;33.94;97680.63;8350757;28;20230;-85
2021/08/15 13:07:56;;;;;;;8.20;6.10;;;;;;;32.38;34.20;97686.25;8350901;28;20203;-84
2021/08/15 13:12:00;;;;;;;9.67;5.53;;;;;;;32.96;34.36;97680.75;8350671;28;20328;-85
2021/08/15 13:16:03;;;;;;;8.73;5.93;;;;;;;32.75;33.76;97673.06;8349925;28;20204;-84
2021/08/15 13:20:08;;;;;;;7.33;5.70;;;;;;;33.46;32.50;97667.31;8350525;28;20204;-84
2021/08/15 13:24:11;;;;;;;8.23;5.97;;;;;;;33.46;33.45;97669.19;8350637;28;20205;-83
2021/08/15 13:28:17;;;;;;;8.07;5.83;;;;;;;33.58;32.19;97653.16;8350533;28;20229;-84
2021/08/15 13:32:22;;;;;;;6.93;5.67;;;;;;;33.89;32.55;97644.97;8350465;28;20532;-84
2021/08/15 13:36:24;;;;;;;9.03;5.60;;;;;;;34.09;32.25;97646.59;8349874;28;20231;-84
2021/08/15 13:40:28;;;;;;;8.10;6.40;;;;;;;33.35;32.91;97645.75;8350179;28;20204;-85
2021/08/15 13:44:32;;;;;;;6.60;5.10;;;;;;;32.97;33.78;97644.03;8350077;28;20206;-85
2021/08/15 13:48:34;;;;;;;10.37;6.03;;;;;;;32.78;34.10;97640.47;8378016;28;20414;-84
2021/08/15 13:52:37;;;;;;;6.03;5.43;;;;;;;33.07;34.40;97630.91;8382655;28;20287;-84
2021/08/15 13:56:40;;;;;;;12.23;5.63;;;;;;;32.69;33.11;97621.97;8382811;28;20198;-84
2021/08/15 14:00:53;;;;;;;8.60;5.57;;;;;;;33.27;31.84;97602.06;8382608;28;20199;-84
2021/08/15 14:04:56;;;;;;;8.37;5.97;;;;;;;33.47;32.88;97601.03;8378904;28;20229;-84
2021/08/15 14:08:59;;;;;;;9.00;5.70;;;;;;;33.10;32.78;97588.41;8382745;28;20217;-85
2021/08/15 14:13:02;;;;;;;11.67;6.20;;;;;;;33.01;32.68;97591.56;8382575;28;20230;-85
2021/08/15 14:17:09;;;;;;;5.73;5.23;;;;;;;32.79;33.72;97583.94;8382912;28;20208;-85
2021/08/15 14:21:13;;;;;;;12.03;5.67;;;;;;;33.11;34.38;97575.84;8382617;28;20201;-85
2021/08/15 14:25:16;;;;;;;8.10;6.00;;;;;;;33.15;33.60;97569.00;8382300;28;20210;-85
2021/08/15 14:29:19;;;;;;;7.43;5.33;;;;;;;32.84;34.24;97584.13;8399834;28;20200;-85
2021/08/15 14:33:26;;;;;;;6.20;5.30;;;;;;;32.61;34.85;97595.41;8390256;28;20235;-85
2021/08/15 14:37:29;;;;;;;6.77;5.40;;;;;;;32.47;35.49;97591.19;8390871;28;20241;-85
2021/08/15 14:41:32;;;;;;;7.37;5.40;;;;;;;32.45;35.33;97577.19;8394154;28;20200;-85
2021/08/15 14:45:35;;;;;;;6.33;5.60;;;;;;;32.28;35.54;97568.84;8391009;28;20201;-84
2021/08/15 14:49:39;;;;;;;11.77;5.70;;;;;;;32.62;35.63;97548.84;8388388;28;20525;-85
2021/08/15 14:53:42;;;;;;;10.23;6.30;;;;;;;32.82;34.82;97545.94;8388189;28;20232;-86
2021/08/15 14:57:44;;;;;;;6.77;5.57;;;;;;;32.89;34.64;97552.09;8388070;28;20210;-85
2021/08/15 15:01:47;;;;;;;9.13;5.87;;;;;;;33.00;34.93;97558.59;8388136;28;20213;-85
2021/08/15 15:05:52;;;;;;;6.93;5.70;;;;;;;33.02;34.72;97535.03;8388013;28;20342;-85
2021/08/15 15:09:55;;;;;;;6.93;6.00;;;;;;;32.97;35.27;97537.56;8388115;28;20200;-85
2021/08/15 15:13:57;;;;;;;9.20;5.93;;;;;;;32.97;34.34;97539.44;8387809;28;20240;-86
2021/08/15 15:18:00;;;;;;;10.07;5.87;;;;;;;33.05;34.53;97549.84;8387836;28;20484;-86
2021/08/15 15:22:04;;;;;;;7.13;5.83;;;;;;;32.91;34.04;97536.59;8387468;28;20203;-86
2021/08/15 15:26:07;;;;;;;9.67;6.00;;;;;;;32.80;34.59;97526.59;8387365;28;20493;-86
2021/08/15 15:30:11;;;;;;;7.60;5.90;;;;;;;32.49;35.07;97530.97;8387773;28;20304;-86
2021/08/15 15:34:14;;;;;;;10.57;5.80;;;;;;;32.34;36.09;97525.13;8387428;28;20239;-86
2021/08/15 15:38:19;;;;;;;8.60;5.70;;;;;;;32.18;36.26;97496.19;8386022;28;20423;-86
2021/08/15 15:42:22;;;;;;;8.37;6.00;;;;;;;31.86;36.15;97504.22;8387543;28;20207;-86
2021/08/15 15:46:26;;;;;;;8.77;5.97;;;;;;;31.72;36.68;97511.47;8386679;28;20210;-85
2021/08/15 15:50:29;;;;;;;12.60;6.03;;;;;;;31.47;37.64;97520.28;8386019;28;20212;-86
2021/08/15 15:54:33;;;;;;;6.60;5.70;;;;;;;31.65;37.00;97522.22;8386554;28;20553;-85
2021/08/15 15:58:36;;;;;;;11.10;5.67;;;;;;;31.49;38.12;97523.56;8386619;28;20202;-85
2021/08/15 16:02:39;;;;;;;5.90;5.27;;;;;;;31.38;38.12;97529.53;8386000;28;20211;-86
2021/08/15 16:06:42;;;;;;;9.37;6.30;;;;;;;31.13;37.78;97545.44;8385778;28;20412;-87
2021/08/15 16:10:47;;;;;;;12.20;4.80;;;;;;;30.00;37.91;97584.41;8386133;28;20202;-88
2021/08/15 16:14:49;;;;;;;10.93;3.50;;;;;;;28.52;40.26;97574.91;8385886;28;20536;-87
2021/08/15 16:18:52;;;;;;;9.50;3.87;;;;;;;28.21;39.75;97576.84;8385873;28;20385;-86
2021/08/15 16:22:55;;;;;;;11.67;3.80;;;;;;;27.88;39.21;97585.31;8385641;28;20204;-87
2021/08/15 16:27:00;;;;;;;10.03;4.23;;;;;;;27.49;39.52;97567.84;8385537;28;20213;-88
2021/08/15 16:31:03;;;;;;;12.37;4.20;;;;;;;27.62;39.87;97592.94;8385425;28;20457;-84
2021/08/15 16:35:06;;;;;;;8.93;4.03;;;;;;;27.67;40.14;97598.53;8385316;28;20473;-86
2021/08/15 16:39:09;;;;;;;7.43;4.23;;;;;;;27.18;41.92;97591.09;8385019;28;20237;-84
2021/08/15 16:43:13;;;;;;;7.77;4.20;;;;;;;27.65;41.02;97561.50;8385458;28;20516;-86
2021/08/15 16:47:16;;;;;;;7.67;4.37;;;;;;;27.57;41.40;97544.81;8384947;28;20509;-84
2021/08/15 16:51:19;;;;;;;8.07;4.40;;;;;;;27.51;41.57;97533.06;8351826;28;20197;-84
2021/08/15 16:55:22;;;;;;;10.60;4.80;;;;;;;27.57;42.11;97527.03;8351741;28;20253;-86
2021/08/15 16:59:28;;;;;;;6.60;4.43;;;;;;;27.55;41.53;97544.16;8367306;28;20203;-85
2021/08/15 17:03:31;;;;;;;8.73;4.80;;;;;;;27.62;41.37;97502.53;8352143;28;20206;-86
2021/08/15 17:07:34;;;;;;;10.43;4.67;;;;;;;27.51;43.03;97503.81;8351268;28;20202;-84
2021/08/15 17:11:37;;;;;;;12.77;5.50;;;;;;;27.39;45.74;97478.75;8351328;28;20485;-86
2021/08/15 17:15:41;;;;;;;15.50;5.77;;;;;;;27.55;48.67;97461.72;8351393;28;20417;-88
2021/08/15 17:19:45;;;;;;;11.43;5.40;;;;;;;27.33;53.62;97445.75;8351586;28;20206;-87
2021/08/15 17:23:48;;;;;;;15.93;6.03;;;;;;;27.23;54.55;97467.28;8351183;28;20207;-85
2021/08/15 17:27:51;;;;;;;11.97;5.20;;;;;;;27.23;54.80;97485.06;8350996;28;20202;-87
2021/08/15 17:31:56;;;;;;;12.43;5.33;;;;;;;26.88;55.04;97484.81;8350888;28;20209;-87
2021/08/15 17:36:00;;;;;;;9.33;5.10;;;;;;;26.99;54.70;97471.06;8352345;28;20238;-86
2021/08/15 17:40:03;;;;;;;10.83;5.73;;;;;;;27.03;56.63;97460.91;8382392;28;20202;-87
2021/08/15 17:44:06;;;;;;;18.13;7.30;;;;;;;27.02;57.11;97470.72;8383420;28;20202;-86
2021/08/15 17:48:12;;;;;;;12.77;5.93;;;;;;;26.80;55.94;97474.28;8381660;28;20196;-87
2021/08/15 17:52:14;;;;;;;10.90;5.87;;;;;;;26.64;55.99;97477.94;8383063;28;20212;-88
2021/08/15 17:56:17;;;;;;;23.43;7.50;;;;;;;26.58;58.25;97484.78;8382519;28;20409;-87
2021/08/15 18:00:21;;;;;;;15.13;9.53;;;;;;;26.60;58.25;97476.63;8381813;28;20209;-86
2021/08/15 18:04:25;;;;;;;15.50;9.13;;;;;;;26.57;57.56;97477.00;8381466;28;20426;-85
2021/08/15 18:08:28;;;;;;;9.43;6.63;;;;;;;26.44;58.23;97501.50;8382113;28;20199;-90
2021/08/15 18:12:32;;;;;;;12.03;6.10;;;;;;;26.37;57.88;97509.38;8383018;28;20209;-89
2021/08/15 18:16:34;;;;;;;9.63;6.30;;;;;;;25.80;59.04;97499.13;8383114;28;20214;-93
2021/08/15 18:20:39;;;;;;;11.13;6.50;;;;;;;26.15;58.27;97505.72;8384632;28;20202;-91
2021/08/15 18:24:42;;;;;;;10.50;7.00;;;;;;;25.63;58.55;97511.69;8393047;28;20220;-88
2021/08/15 18:28:45;;;;;;;12.63;6.20;;;;;;;25.59;58.25;97513.03;8382512;28;20272;-86
2021/08/15 18:32:49;;;;;;;12.70;5.90;;;;;;;25.24;59.98;97536.38;8382623;28;20202;-85
2021/08/15 18:36:53;;;;;;;8.90;6.10;;;;;;;25.33;59.35;97527.41;8381650;28;20347;-84
2021/08/15 18:40:56;;;;;;;10.90;6.43;;;;;;;25.56;58.64;97524.81;8381700;28;20201;-83
2021/08/15 18:44:59;;;;;;;11.37;6.67;;;;;;;25.30;59.18;97530.38;8380246;28;20398;-83
2021/08/15 18:49:02;;;;;;;13.40;6.90;;;;;;;25.28;58.60;97535.84;8379499;28;20200;-83
2021/08/15 18:53:07;;;;;;;9.37;6.53;;;;;;;25.34;59.22;97539.63;8381031;28;20312;-83
2021/08/15 18:57:10;;;;;;;9.97;7.20;;;;;;;25.31;59.26;97530.22;8379615;28;20205;-83
2021/08/15 19:01:14;;;;;;;11.43;7.23;;;;;;;25.38;59.26;97525.06;8380857;28;20483;-83